Etusivu
METAR-TAF:

METAR-TAF

Lentoasemat :

Torino, Italia

Leveyspiiri: 45-13N, Pituuspiiri: 007-39E, korkeus merenpinnasta: 301 m

Tämänhetkinen sää

Tämä raportti tehtiin 15 minuuttia sitten, kello 10.20 UTC
Tuuli 2 kn eri suunnista
Lämpötila 7°C
Kosteus 81%
Ilmanpaine 1001 hPa
Näkyvyys 10 km tai enemmän
Hajonneita pilviä 7000 ft:n korkeudessa

METAR: LIMF 171020Z VRB02KT 9999 BKN070 07/04 Q1001

Aika: 11:35 (10:35 UTC)

Sääennuste

Tämä raportti tehtiin 5 tuntia ja 35 minuuttia sitten, kello 05.00 UTC
Ennuste voimassa 17. päivästä klo 06 UTC - 18. päivään klo 06 UTC
Tuuli 5 kn eri suunnista
Näkyvyys: 7000 m
Hajonneita pilviä 6000 ft:n korkeudessa
Todennäköisyys 40% :
Ajoittain
17. päivästä klo 19 UTC - 17. päivään klo 23 UTC
Näkyvyys: 4000 m
vesikuuroja

TAF: LIMF 170500Z 1706/1806 VRB05KT 7000 BKN060 PROB40 TEMPO 1719/1723 4000 SHRA

Säähavainnot ja -ennusteet yli 4000 lentoasemalta (METAR- ja TAF-raportit).

Käytössä olevat sääasemat on merkitty karttaan keltaisilla ja punaisilla pisteillä.

Aseta hiiri pisteen päälle nähdäksesi sääaseman nimen.

Klikkaa sitten nähdäksesi säähavainnot ja -ennusteet.

Kartan vaihtaminen: klikkaa mustalla rastilla varustettuja vihreitä pisteitä, niin voit zoomata sisään; viivalla varustettua vihreää pistettä, niin voit zoomata ulos tai vihreitä nuolia, niin pääset viereisille kartoille.


METAR-TAF: